Time;durP1;ratioP1;P1;durP2;ratioP2;P2;SDS_P1;SDS_P2;PMS_P1;PMS_P2;Temp;Humidity;BMP_temperature;BMP_pressure;BME280_temperature;BME280_humidity;BME280_pressure;Samples;Min_cycle;Max_cycle;Signal;HPM_P1;HPM_P2
2023/04/10 00:01:37;;;;;;;17.30;11.93;;;8.70;33.90;;;;;;5011981;28;20389;-74
2023/04/10 00:04:03;;;;;;;16.02;11.13;;;8.70;33.90;;;;;;5011175;28;20392;-75
2023/04/10 00:06:30;;;;;;;16.65;12.05;;;8.70;34.50;;;;;;5010626;28;20458;-75
2023/04/10 00:08:59;;;;;;;15.73;11.45;;;8.70;34.60;;;;;;5013107;28;20396;-77
2023/04/10 00:11:25;;;;;;;18.70;11.40;;;8.70;34.70;;;;;;5012257;28;20385;-75
2023/04/10 00:13:52;;;;;;;16.40;11.20;;;8.60;34.40;;;;;;5012965;28;20404;-74
2023/04/10 00:16:18;;;;;;;15.65;11.10;;;8.70;35.00;;;;;;5018671;28;20412;-74
2023/04/10 00:18:44;;;;;;;15.43;10.50;;;8.70;34.40;;;;;;5023111;28;20385;-75
2023/04/10 00:21:09;;;;;;;16.67;11.30;;;8.60;34.50;;;;;;5025727;28;20432;-75
2023/04/10 00:23:35;;;;;;;21.87;12.10;;;8.60;34.80;;;;;;5035823;28;20395;-75
2023/04/10 00:26:01;;;;;;;13.95;10.38;;;8.60;35.00;;;;;;5035566;28;20392;-74
2023/04/10 00:28:26;;;;;;;15.87;10.97;;;8.60;35.00;;;;;;5035715;28;20404;-75
2023/04/10 00:30:52;;;;;;;14.50;11.00;;;8.60;34.60;;;;;;5035437;28;20400;-75
2023/04/10 00:33:17;;;;;;;16.10;10.90;;;8.60;34.80;;;;;;5035716;28;20431;-74
2023/04/10 00:35:43;;;;;;;15.40;11.07;;;8.50;35.20;;;;;;5034904;28;20460;-74
2023/04/10 00:38:09;;;;;;;17.10;11.53;;;8.60;34.70;;;;;;5033582;28;20694;-74
2023/04/10 00:40:34;;;;;;;15.63;10.90;;;8.60;34.80;;;;;;5034783;28;20392;-74
2023/04/10 00:43:00;;;;;;;15.37;11.10;;;8.60;34.50;;;;;;5028693;28;20388;-75
2023/04/10 00:45:26;;;;;;;17.40;11.80;;;8.60;34.50;;;;;;5026714;28;20388;-75
2023/04/10 00:47:52;;;;;;;17.50;11.80;;;8.50;35.30;;;;;;5024079;28;20408;-74
2023/04/10 00:50:19;;;;;;;17.58;11.85;;;8.60;35.50;;;;;;5020195;28;20454;-74
2023/04/10 00:52:45;;;;;;;17.50;11.85;;;8.60;34.50;;;;;;5030631;28;20476;-76
2023/04/10 00:55:11;;;;;;;16.42;11.80;;;8.60;34.80;;;;;;5034244;28;20466;-76
2023/04/10 00:57:37;;;;;;;16.77;11.77;;;8.60;34.70;;;;;;5031017;28;20420;-76
2023/04/10 01:00:03;;;;;;;16.17;11.93;;;8.70;35.20;;;;;;5023360;28;20484;-75
2023/04/10 01:02:31;;;;;;;17.17;11.82;;;8.70;35.10;;;;;;5016781;28;20412;-75
2023/04/10 01:04:56;;;;;;;16.17;11.05;;;8.60;35.00;;;;;;5017795;28;20392;-75
2023/04/10 01:07:40;;;;;;;16.50;11.70;;;8.60;34.60;;;;;;5017338;28;20539;-75
2023/04/10 01:10:33;;;;;;;18.57;12.20;;;8.60;35.00;;;;;;5023925;28;20502;-75
2023/04/10 01:13:10;;;;;;;16.45;12.50;;;8.70;34.70;;;;;;5029319;28;20420;-75
2023/04/10 01:15:46;;;;;;;17.30;12.30;;;8.70;35.20;;;;;;5031121;28;20373;-75
2023/04/10 01:18:23;;;;;;;17.52;11.80;;;8.60;35.70;;;;;;5031479;28;20412;-74
2023/04/10 01:20:48;;;;;;;17.50;11.98;;;8.60;35.40;;;;;;5030744;28;20389;-75
2023/04/10 01:23:22;;;;;;;17.08;12.07;;;8.60;36.50;;;;;;5030766;28;20438;-75
2023/04/10 01:26:07;;;;;;;18.47;12.70;;;8.60;35.70;;;;;;5030292;28;20385;-74
2023/04/10 01:28:55;;;;;;;18.55;12.93;;;8.60;35.80;;;;;;5028245;28;20453;-74
2023/04/10 01:31:35;;;;;;;16.43;11.87;;;8.50;36.10;;;;;;5024709;28;20419;-74
2023/04/10 01:34:06;;;;;;;16.80;12.25;;;8.50;35.90;;;;;;5021669;28;20481;-75
2023/04/10 01:36:36;;;;;;;18.73;12.07;;;8.50;35.90;;;;;;5022920;28;20388;-75
2023/04/10 01:39:03;;;;;;;17.73;12.40;;;8.40;36.20;;;;;;5021460;28;20487;-75
2023/04/10 01:41:31;;;;;;;19.27;12.57;;;8.40;36.90;;;;;;5019948;28;20388;-74
2023/04/10 01:43:59;;;;;;;17.75;12.95;;;8.40;37.80;;;;;;5021370;28;20397;-74
2023/04/10 01:46:26;;;;;;;17.77;12.50;;;8.40;37.40;;;;;;5021428;28;20949;-74
2023/04/10 01:48:53;;;;;;;18.08;12.60;;;8.40;37.20;;;;;;5021272;28;20408;-75
2023/04/10 01:51:20;;;;;;;19.25;13.40;;;8.30;37.90;;;;;;5020724;28;20452;-74
2023/04/10 01:53:47;;;;;;;18.40;13.10;;;8.30;38.20;;;;;;5021335;28;20455;-74
2023/04/10 01:56:14;;;;;;;18.73;13.65;;;8.30;38.20;;;;;;5021059;28;20412;-74
2023/04/10 01:58:40;;;;;;;16.80;12.75;;;8.30;38.30;;;;;;5021916;28;20494;-74
2023/04/10 02:01:05;;;;;;;18.08;13.15;;;8.30;37.80;;;;;;5021152;28;20401;-73
2023/04/10 02:03:31;;;;;;;19.48;13.07;;;8.30;38.20;;;;;;5020262;28;20435;-75
2023/04/10 02:06:28;;;;;;;18.33;13.52;;;8.20;38.60;;;;;;5015039;28;20444;-75
2023/04/10 02:09:09;;;;;;;18.83;13.20;;;8.20;38.50;;;;;;5014662;28;20393;-75
2023/04/10 02:11:56;;;;;;;19.63;14.00;;;8.10;39.10;;;;;;5014274;28;20475;-75
2023/04/10 02:14:27;;;;;;;19.88;13.27;;;8.10;39.10;;;;;;5014242;28;20415;-74
2023/04/10 02:16:53;;;;;;;20.10;13.48;;;8.00;39.40;;;;;;5014510;28;20830;-74
2023/04/10 02:19:21;;;;;;;19.38;13.70;;;8.00;39.70;;;;;;5014354;28;20385;-75
2023/04/10 02:21:47;;;;;;;19.50;13.75;;;8.00;40.10;;;;;;4996431;28;20393;-74
2023/04/10 02:24:13;;;;;;;20.25;13.63;;;7.90;40.70;;;;;;5014138;28;20446;-74
2023/04/10 02:27:07;;;;;;;20.17;13.85;;;7.90;40.20;;;;;;5013870;28;20393;-74
2023/04/10 02:29:33;;;;;;;20.75;14.18;;;7.90;40.60;;;;;;5005275;28;20501;-75
2023/04/10 02:31:58;;;;;;;19.15;13.18;;;7.80;41.00;;;;;;5014981;28;20417;-76
2023/04/10 02:34:24;;;;;;;18.90;13.50;;;7.90;40.40;;;;;;5016016;28;20782;-73
2023/04/10 02:36:51;;;;;;;21.15;14.60;;;7.80;41.10;;;;;;5022877;28;21103;-74
2023/04/10 02:39:16;;;;;;;19.63;13.80;;;7.80;41.10;;;;;;5021288;28;20377;-74
2023/04/10 02:41:42;;;;;;;19.38;13.60;;;7.80;41.20;;;;;;5017822;28;20416;-74
2023/04/10 02:44:09;;;;;;;20.02;13.80;;;7.80;41.60;;;;;;5017608;28;20444;-74
2023/04/10 02:46:35;;;;;;;20.10;14.43;;;7.80;41.90;;;;;;5016173;28;20396;-76
2023/04/10 02:49:00;;;;;;;19.07;13.63;;;7.80;42.40;;;;;;5013955;28;20385;-75
2023/04/10 02:51:26;;;;;;;19.63;14.20;;;7.70;42.40;;;;;;5017687;28;20411;-74
2023/04/10 02:53:52;;;;;;;21.27;13.93;;;7.80;42.50;;;;;;5028009;28;20439;-74
2023/04/10 02:56:17;;;;;;;19.83;13.80;;;7.80;42.90;;;;;;5028325;28;20397;-72
2023/04/10 02:58:45;;;;;;;18.83;13.40;;;7.80;42.20;;;;;;5026989;28;20381;-74
2023/04/10 03:01:11;;;;;;;18.88;13.73;;;7.80;42.80;;;;;;5024677;28;20399;-74
2023/04/10 03:03:36;;;;;;;20.08;13.30;;;7.80;42.90;;;;;;5020454;28;20384;-73
2023/04/10 03:06:02;;;;;;;20.53;14.07;;;7.80;43.20;;;;;;5013589;28;20826;-76
2023/04/10 03:08:29;;;;;;;22.50;14.10;;;7.70;43.40;;;;;;5014289;28;20393;-75
2023/04/10 03:10:55;;;;;;;20.10;13.63;;;7.70;44.40;;;;;;5013347;28;20389;-76
2023/04/10 03:13:22;;;;;;;20.38;13.77;;;7.60;44.50;;;;;;5013727;28;20500;-75
2023/04/10 03:15:48;;;;;;;22.23;14.40;;;7.60;44.10;;;;;;5013700;28;20861;-74
2023/04/10 03:18:13;;;;;;;23.17;14.00;;;7.60;44.80;;;;;;5013073;28;20407;-76
2023/04/10 03:20:39;;;;;;;21.80;14.80;;;7.50;45.80;;;;;;5013806;28;20428;-74
2023/04/10 03:23:06;;;;;;;20.30;13.73;;;7.50;45.40;;;;;;5012943;28;20404;-74
2023/04/10 03:25:35;;;;;;;20.67;13.43;;;7.50;45.10;;;;;;5012875;28;20397;-75
2023/04/10 03:28:00;;;;;;;21.65;13.82;;;7.50;45.60;;;;;;5013681;23;20445;-73
2023/04/10 03:30:26;;;;;;;19.40;13.43;;;7.50;45.80;;;;;;4991818;28;20383;-74
2023/04/10 03:32:51;;;;;;;21.05;13.65;;;7.50;45.20;;;;;;4991036;28;20501;-73
2023/04/10 03:35:17;;;;;;;20.02;13.02;;;7.50;45.10;;;;;;4991880;28;20402;-74
2023/04/10 03:37:43;;;;;;;21.40;13.73;;;7.40;45.00;;;;;;4991793;28;20386;-73
2023/04/10 03:40:09;;;;;;;19.40;12.88;;;7.40;45.50;;;;;;4992191;28;20418;-73
2023/04/10 03:42:35;;;;;;;20.17;13.88;;;7.40;45.40;;;;;;4990275;28;20445;-74
2023/04/10 03:45:03;;;;;;;20.05;13.48;;;7.40;45.30;;;;;;4992039;28;20382;-72
2023/04/10 03:47:29;;;;;;;20.33;12.98;;;7.40;45.00;;;;;;4991694;28;20386;-73
2023/04/10 03:49:55;;;;;;;19.85;13.15;;;7.30;45.20;;;;;;4991797;28;20378;-72
2023/04/10 03:52:21;;;;;;;20.97;13.17;;;7.40;45.40;;;;;;4990796;28;20829;-71
2023/04/10 03:54:47;;;;;;;17.80;12.30;;;7.40;45.80;;;;;;4991793;28;20390;-74
2023/04/10 03:57:12;;;;;;;17.90;12.63;;;7.40;45.30;;;;;;4991752;28;20387;-72
2023/04/10 03:59:38;;;;;;;18.45;12.02;;;7.40;45.20;;;;;;4992205;28;20386;-73
2023/04/10 04:02:03;;;;;;;16.90;12.32;;;7.40;44.60;;;;;;4992106;28;20398;-73
2023/04/10 04:04:30;;;;;;;21.73;13.00;;;7.30;45.10;;;;;;4992532;28;20863;-72
2023/04/10 04:06:55;;;;;;;18.83;12.85;;;7.30;46.20;;;;;;4992690;28;20485;-72
2023/04/10 04:09:21;;;;;;;18.90;12.83;;;7.30;45.90;;;;;;4992849;28;20426;-72
2023/04/10 04:11:46;;;;;;;17.57;12.30;;;7.20;45.80;;;;;;4991556;28;20402;-74
2023/04/10 04:14:12;;;;;;;18.03;12.53;;;7.30;45.00;;;;;;4996199;28;20491;-74
2023/04/10 04:16:37;;;;;;;17.40;12.40;;;7.20;45.50;;;;;;4996445;28;20402;-73
2023/04/10 04:19:03;;;;;;;18.53;12.20;;;7.20;46.10;;;;;;4996666;28;20374;-73
2023/04/10 04:21:30;;;;;;;18.20;12.50;;;7.10;46.30;;;;;;4995151;28;20432;-73
2023/04/10 04:23:56;;;;;;;18.48;12.40;;;7.10;45.90;;;;;;4995945;28;20413;-73
2023/04/10 04:26:23;;;;;;;16.70;11.52;;;7.20;44.90;;;;;;4995382;28;20391;-71
2023/04/10 04:28:49;;;;;;;18.00;11.90;;;7.20;45.30;;;;;;4995531;28;20398;-71
2023/04/10 04:31:15;;;;;;;15.40;12.00;;;7.20;45.40;;;;;;4994384;28;20394;-73
2023/04/10 04:33:40;;;;;;;19.47;12.23;;;7.20;45.40;;;;;;4994826;28;20413;-72
2023/04/10 04:36:06;;;;;;;16.83;12.40;;;7.10;45.50;;;;;;4994922;28;20394;-72
2023/04/10 04:38:32;;;;;;;18.38;12.73;;;7.10;46.10;;;;;;4994692;28;20382;-72
2023/04/10 04:40:57;;;;;;;18.00;11.93;;;7.10;46.20;;;;;;4994324;28;20462;-73
2023/04/10 04:43:23;;;;;;;17.63;11.75;;;7.10;46.20;;;;;;4995144;28;20402;-74
2023/04/10 04:45:49;;;;;;;17.27;11.55;;;7.20;45.50;;;;;;5000071;28;20394;-74
2023/04/10 04:48:14;;;;;;;17.65;12.02;;;7.10;45.80;;;;;;5007713;28;20417;-71
2023/04/10 04:50:40;;;;;;;18.90;12.00;;;7.10;45.20;;;;;;5013302;28;20421;-72
2023/04/10 04:53:07;;;;;;;17.25;11.73;;;7.10;45.90;;;;;;4995832;28;20445;-74
2023/04/10 04:55:32;;;;;;;17.58;11.95;;;7.20;44.50;;;;;;4994552;28;20395;-72
2023/04/10 04:57:58;;;;;;;18.00;11.80;;;7.20;44.30;;;;;;4994351;28;20493;-72
2023/04/10 05:00:23;;;;;;;16.77;11.50;;;7.20;44.90;;;;;;4994295;28;20481;-72
2023/04/10 05:02:49;;;;;;;14.80;11.23;;;7.30;44.00;;;;;;4993631;28;20390;-73
2023/04/10 05:05:14;;;;;;;16.87;12.00;;;7.20;44.00;;;;;;4992768;28;20381;-73
2023/04/10 05:07:40;;;;;;;15.47;11.23;;;7.30;43.80;;;;;;4994250;28;20451;-72
2023/04/10 05:10:07;;;;;;;15.73;11.07;;;7.30;43.50;;;;;;4994467;28;20401;-74
2023/04/10 05:12:33;;;;;;;17.17;11.40;;;7.30;43.80;;;;;;4993828;28;20394;-73
2023/04/10 05:14:59;;;;;;;17.07;12.13;;;7.30;43.80;;;;;;4993176;28;20417;-73
2023/04/10 05:17:25;;;;;;;14.97;11.20;;;7.40;43.90;;;;;;4994782;28;20379;-74
2023/04/10 05:19:50;;;;;;;17.20;11.20;;;7.40;42.90;;;;;;4994751;28;20798;-73
2023/04/10 05:22:16;;;;;;;15.82;11.18;;;7.50;42.50;;;;;;4992502;28;20802;-72
2023/04/10 05:24:41;;;;;;;17.25;11.55;;;7.60;42.20;;;;;;4994017;28;20909;-73
2023/04/10 05:27:07;;;;;;;17.67;12.10;;;7.60;41.80;;;;;;4993843;28;20399;-72
2023/04/10 05:29:34;;;;;;;17.45;11.13;;;7.70;41.50;;;;;;4993175;28;20500;-74
2023/04/10 05:32:00;;;;;;;15.67;11.43;;;7.80;39.90;;;;;;4993235;28;20473;-73
2023/04/10 05:34:25;;;;;;;14.43;10.60;;;7.80;39.30;;;;;;4993636;28;20418;-74
2023/04/10 05:36:51;;;;;;;17.73;11.53;;;7.90;39.50;;;;;;4993621;28;20397;-72
2023/04/10 05:39:16;;;;;;;15.60;11.10;;;8.00;38.60;;;;;;4993660;28;20430;-74
2023/04/10 05:41:42;;;;;;;18.70;11.97;;;8.10;37.50;;;;;;4993345;28;20440;-73
2023/04/10 05:44:07;;;;;;;15.13;11.20;;;8.20;36.70;;;;;;4993620;28;20390;-72
2023/04/10 05:46:33;;;;;;;18.63;11.27;;;8.30;36.50;;;;;;4993683;28;20394;-74
2023/04/10 05:48:59;;;;;;;15.33;11.13;;;8.30;36.00;;;;;;4993945;28;20391;-73
2023/04/10 05:51:25;;;;;;;16.10;11.27;;;8.40;36.00;;;;;;4992878;28;20395;-74
2023/04/10 05:53:50;;;;;;;14.77;10.73;;;8.50;35.00;;;;;;4993479;28;20433;-74
2023/04/10 05:56:16;;;;;;;15.23;10.98;;;8.60;34.50;;;;;;4993587;28;20890;-74
2023/04/10 05:58:41;;;;;;;15.98;10.60;;;8.80;33.00;;;;;;4993190;28;20390;-72
2023/04/10 06:01:07;;;;;;;14.30;10.53;;;8.90;33.50;;;;;;4992754;28;20394;-74
2023/04/10 06:03:33;;;;;;;18.33;10.60;;;9.00;31.80;;;;;;4993241;28;20396;-73
2023/04/10 06:05:59;;;;;;;15.93;10.73;;;9.10;32.50;;;;;;4993373;28;20390;-72
2023/04/10 06:08:25;;;;;;;14.73;10.70;;;9.20;32.80;;;;;;4994582;28;20386;-74
2023/04/10 06:10:51;;;;;;;14.15;10.27;;;9.30;32.10;;;;;;4997648;28;20421;-71
2023/04/10 06:13:16;;;;;;;13.55;10.23;;;9.50;31.00;;;;;;4996936;28;20486;-74
2023/04/10 06:15:42;;;;;;;13.10;10.20;;;9.50;31.00;;;;;;4997241;28;20387;-74
2023/04/10 06:18:08;;;;;;;17.45;10.85;;;9.60;29.30;;;;;;4995035;28;20756;-74
2023/04/10 06:20:33;;;;;;;17.48;10.70;;;9.70;29.30;;;;;;4993456;28;20405;-74
2023/04/10 06:22:59;;;;;;;13.98;10.32;;;9.80;28.50;;;;;;4994413;28;20434;-74
2023/04/10 06:25:25;;;;;;;14.90;10.30;;;9.90;28.20;;;;;;4993399;28;20444;-73
2023/04/10 06:27:51;;;;;;;14.18;10.05;;;10.00;27.50;;;;;;4992601;28;20906;-72
2023/04/10 06:30:16;;;;;;;13.27;10.27;;;10.10;26.80;;;;;;4992451;28;20411;-73
2023/04/10 06:32:42;;;;;;;13.60;9.70;;;10.20;26.10;;;;;;4991941;28;20865;-73
2023/04/10 06:35:08;;;;;;;15.07;10.60;;;10.50;24.70;;;;;;4992963;28;20577;-73
2023/04/10 06:37:33;;;;;;;16.13;10.52;;;10.60;25.40;;;;;;4992123;28;20397;-73
2023/04/10 06:40:10;;;;;;;27.90;10.80;;;10.80;25.50;;;;;;4993042;28;20434;-73
2023/04/10 06:42:36;;;;;;;15.23;10.40;;;11.00;24.90;;;;;;4991706;28;20420;-72
2023/04/10 06:45:02;;;;;;;14.00;10.20;;;11.20;25.60;;;;;;4992722;28;20382;-75
2023/04/10 06:47:28;;;;;;;15.40;9.87;;;11.40;24.70;;;;;;4990143;28;20403;-74
2023/04/10 06:49:54;;;;;;;13.68;9.90;;;11.60;23.10;;;;;;4992190;28;20590;-74
2023/04/10 06:52:19;;;;;;;14.67;9.93;;;11.80;22.70;;;;;;4989283;28;20820;-73
2023/04/10 06:54:45;;;;;;;13.50;9.80;;;11.90;22.10;;;;;;4978419;28;20407;-73
2023/04/10 06:57:11;;;;;;;13.57;9.82;;;11.90;19.70;;;;;;4989582;28;20736;-73
2023/04/10 06:59:36;;;;;;;14.00;10.00;;;12.10;20.80;;;;;;4975815;28;20392;-74
2023/04/10 07:02:03;;;;;;;13.40;9.70;;;12.10;20.70;;;;;;4970842;28;20406;-73
2023/04/10 07:04:29;;;;;;;14.60;10.82;;;12.10;20.50;;;;;;4989453;28;20413;-74
2023/04/10 07:06:55;;;;;;;14.32;10.23;;;12.10;19.60;;;;;;4989953;28;20394;-74
2023/04/10 07:09:20;;;;;;;14.70;10.00;;;12.30;19.00;;;;;;4989686;28;20840;-73
2023/04/10 07:11:46;;;;;;;15.17;10.60;;;12.40;18.30;;;;;;4986642;28;20957;-74
2023/04/10 07:14:12;;;;;;;12.07;9.70;;;12.50;18.50;;;;;;4990018;28;20410;-74
2023/04/10 07:16:37;;;;;;;14.00;9.53;;;12.70;18.30;;;;;;4989310;28;20402;-74
2023/04/10 07:19:03;;;;;;;12.83;9.40;;;12.90;17.60;;;;;;4989993;28;20453;-75
2023/04/10 07:21:28;;;;;;;11.70;9.37;;;13.00;16.90;;;;;;5003835;28;20426;-73
2023/04/10 07:23:54;;;;;;;14.45;9.63;;;13.00;16.80;;;;;;4997342;28;20408;-74
2023/04/10 07:26:20;;;;;;;12.80;9.40;;;13.10;16.90;;;;;;4989069;28;20460;-75
2023/04/10 07:28:45;;;;;;;14.15;9.68;;;13.10;16.80;;;;;;4988684;28;21048;-74
2023/04/10 07:31:12;;;;;;;13.43;9.68;;;13.00;16.40;;;;;;4988728;28;20756;-74
2023/04/10 07:33:38;;;;;;;13.32;9.30;;;13.00;16.80;;;;;;4987747;28;20549;-74
2023/04/10 07:36:04;;;;;;;16.73;9.30;;;12.90;16.80;;;;;;4988909;28;20478;-75
2023/04/10 07:38:31;;;;;;;12.95;9.70;;;13.00;16.20;;;;;;4989354;28;20397;-73
2023/04/10 07:40:59;;;;;;;11.55;8.85;;;13.00;16.80;;;;;;4988109;28;20464;-74
2023/04/10 07:43:25;;;;;;;11.15;8.57;;;13.00;16.40;;;;;;4989077;28;20785;-74
2023/04/10 07:45:51;;;;;;;11.10;9.23;;;12.90;16.50;;;;;;4989241;28;20389;-74
2023/04/10 07:48:17;;;;;;;13.52;9.50;;;13.00;16.40;;;;;;4988085;28;20402;-73
2023/04/10 07:50:43;;;;;;;13.18;9.50;;;13.00;16.50;;;;;;4989615;28;20402;-72
2023/04/10 07:53:08;;;;;;;12.15;9.30;;;13.00;16.80;;;;;;4989598;28;20433;-76
2023/04/10 07:55:42;;;;;;;12.23;9.00;;;13.00;16.70;;;;;;4988269;28;20390;-74
2023/04/10 07:58:07;;;;;;;19.08;9.40;;;13.10;16.80;;;;;;4988784;28;20475;-76
2023/04/10 08:00:33;;;;;;;11.60;9.30;;;13.20;16.70;;;;;;4990137;28;20390;-74
2023/04/10 08:02:59;;;;;;;16.17;9.47;;;13.40;16.30;;;;;;4988833;28;20406;-74
2023/04/10 08:05:25;;;;;;;14.83;8.87;;;13.50;16.10;;;;;;4988674;28;20398;-74
2023/04/10 08:07:51;;;;;;;12.70;8.85;;;13.60;15.80;;;;;;4989137;28;20469;-73
2023/04/10 08:10:16;;;;;;;10.52;8.55;;;13.70;15.30;;;;;;4986755;28;20529;-73
2023/04/10 08:12:42;;;;;;;11.47;8.50;;;13.80;15.80;;;;;;4988059;28;20796;-74
2023/04/10 08:15:08;;;;;;;15.93;8.83;;;14.00;15.10;;;;;;4989052;28;20537;-74
2023/04/10 08:17:33;;;;;;;13.50;8.70;;;14.10;14.80;;;;;;4989181;28;20906;-74
2023/04/10 08:19:59;;;;;;;11.60;8.50;;;14.10;15.00;;;;;;4989172;28;20890;-73
2023/04/10 08:22:25;;;;;;;11.90;8.00;;;14.20;14.60;;;;;;4988241;28;20430;-74
2023/04/10 08:24:50;;;;;;;11.23;8.25;;;14.20;13.60;;;;;;4989349;28;20490;-74
2023/04/10 08:27:16;;;;;;;10.98;8.93;;;14.40;14.00;;;;;;4988439;28;20410;-75
2023/04/10 08:29:42;;;;;;;11.45;8.18;;;14.60;13.60;;;;;;4988876;28;20393;-75
2023/04/10 08:32:07;;;;;;;11.82;8.30;;;14.80;13.10;;;;;;4988162;28;20482;-75
2023/04/10 08:34:33;;;;;;;11.88;8.25;;;15.00;12.80;;;;;;4985968;28;20438;-74
2023/04/10 08:36:59;;;;;;;12.60;8.48;;;15.20;12.50;;;;;;4987524;28;20474;-73
2023/04/10 08:39:24;;;;;;;9.50;7.50;;;15.40;12.60;;;;;;4989437;28;20606;-73
2023/04/10 08:41:50;;;;;;;9.20;7.33;;;15.40;11.80;;;;;;4976927;28;20399;-76
2023/04/10 08:44:16;;;;;;;12.60;8.10;;;15.40;11.40;;;;;;4971058;28;20436;-73
2023/04/10 08:46:44;;;;;;;11.80;8.40;;;15.40;12.10;;;;;;4975455;28;20779;-76
2023/04/10 08:49:16;;;;;;;11.97;8.60;;;15.50;12.50;;;;;;4991022;28;20406;-74
2023/04/10 08:51:48;;;;;;;10.20;8.02;;;15.60;12.80;;;;;;4991079;28;20693;-74
2023/04/10 08:54:20;;;;;;;9.30;7.45;;;15.60;12.40;;;;;;4992210;28;20422;-73
2023/04/10 08:56:50;;;;;;;12.73;7.57;;;15.50;11.80;;;;;;4990537;28;20489;-74
2023/04/10 08:59:16;;;;;;;9.95;7.85;;;15.40;11.50;;;;;;4992379;28;20402;-73
2023/04/10 09:01:41;;;;;;;10.57;7.53;;;15.20;11.80;;;;;;4994507;28;20736;-73
2023/04/10 09:04:10;;;;;;;8.60;6.90;;;15.10;12.60;;;;;;4995618;28;20406;-74
2023/04/10 09:06:35;;;;;;;9.10;7.45;;;15.00;11.90;;;;;;4994645;28;20883;-71
2023/04/10 09:09:01;;;;;;;9.93;7.30;;;14.90;12.30;;;;;;4995534;28;20401;-74
2023/04/10 09:11:55;;;;;;;10.37;7.80;;;14.90;12.90;;;;;;4994900;28;20386;-73
2023/04/10 09:14:22;;;;;;;10.00;7.50;;;14.90;13.00;;;;;;4995737;28;20413;-74
2023/04/10 09:16:49;;;;;;;13.20;7.22;;;15.20;12.70;;;;;;4996204;28;20436;-74
2023/04/10 09:19:32;;;;;;;9.83;7.13;;;15.30;12.20;;;;;;4995740;28;20393;-74
2023/04/10 09:21:58;;;;;;;9.90;7.22;;;15.60;11.60;;;;;;4995639;28;20402;-73
2023/04/10 09:24:25;;;;;;;8.68;6.47;;;15.80;10.90;;;;;;4997385;28;20729;-72
2023/04/10 09:26:51;;;;;;;8.40;6.13;;;16.00;10.50;;;;;;4997467;28;20402;-74
2023/04/10 09:29:17;;;;;;;7.93;6.40;;;16.20;10.10;;;;;;5007960;23;20442;-75
2023/04/10 09:31:43;;;;;;;9.00;6.80;;;16.40;10.20;;;;;;4993664;28;20397;-75
2023/04/10 09:34:21;;;;;;;7.95;6.50;;;16.70;10.50;;;;;;4994110;28;20410;-75
2023/04/10 09:36:56;;;;;;;10.45;6.75;;;16.90;9.20;;;;;;4993921;28;20402;-75
2023/04/10 09:39:31;;;;;;;8.20;6.70;;;17.10;9.10;;;;;;4994229;28;20814;-75
2023/04/10 09:41:57;;;;;;;8.77;6.38;;;17.20;9.00;;;;;;4994728;28;20914;-75
2023/04/10 09:44:35;;;;;;;10.25;6.40;;;17.40;8.40;;;;;;4996629;28;20394;-74
2023/04/10 09:47:12;;;;;;;8.70;6.00;;;17.60;7.80;;;;;;4995555;28;20398;-75
2023/04/10 09:49:48;;;;;;;8.20;6.22;;;17.70;7.50;;;;;;4996049;28;20387;-75
2023/04/10 09:52:27;;;;;;;8.05;6.20;;;17.70;8.00;;;;;;4993929;28;20378;-75
2023/04/10 09:55:02;;;;;;;7.60;5.95;;;17.80;7.50;;;;;;4996270;28;20918;-75
2023/04/10 09:57:30;;;;;;;7.35;5.90;;;18.00;7.50;;;;;;4997849;28;20449;-74
2023/04/10 09:59:58;;;;;;;8.07;5.85;;;18.00;6.80;;;;;;4995132;28;20429;-74
2023/04/10 10:02:29;;;;;;;6.05;5.18;;;17.90;6.70;;;;;;4994649;28;20378;-75
2023/04/10 10:04:56;;;;;;;6.70;5.10;;;17.80;7.00;;;;;;4996093;28;20391;-74
2023/04/10 10:07:22;;;;;;;7.05;5.43;;;17.90;6.20;;;;;;4994974;28;20383;-76
2023/04/10 10:09:50;;;;;;;8.13;5.40;;;17.70;6.20;;;;;;4995298;28;20387;-75
2023/04/10 10:12:43;;;;;;;7.45;5.47;;;17.60;5.40;;;;;;4994918;28;20455;-76
2023/04/10 10:16:00;;;;;;;6.45;4.70;;;17.60;6.00;;;;;;4992721;28;20406;-75
2023/04/10 10:18:53;;;;;;;7.00;4.82;;;17.70;6.20;;;;;;4974919;28;20411;-73
2023/04/10 10:21:20;;;;;;;6.28;4.80;;;17.70;6.00;;;;;;4983479;28;20396;-74
2023/04/10 10:23:52;;;;;;;6.55;5.00;;;18.00;5.80;;;;;;5010533;28;20402;-73
2023/04/10 10:26:22;;;;;;;7.55;4.95;;;18.20;5.80;;;;;;5005677;28;20868;-73
2023/04/10 10:28:51;;;;;;;7.28;5.85;;;18.50;5.00;;;;;;5005845;28;20827;-74
2023/04/10 10:31:17;;;;;;;7.73;4.80;;;18.60;5.20;;;;;;5005117;28;20409;-74
2023/04/10 10:33:43;;;;;;;7.47;5.20;;;18.60;4.10;;;;;;5005121;28;20409;-75
2023/04/10 10:36:12;;;;;;;6.80;5.13;;;18.70;3.70;;;;;;5004907;28;20391;-74
2023/04/10 10:38:43;;;;;;;5.43;4.80;;;18.60;4.20;;;;;;5005013;28;20398;-74
2023/04/10 10:41:37;;;;;;;9.48;4.90;;;18.70;4.20;;;;;;5007021;28;20398;-74
2023/04/10 10:44:13;;;;;;;5.65;5.00;;;18.80;3.90;;;;;;5003426;28;20403;-74
2023/04/10 10:47:08;;;;;;;9.40;4.93;;;18.80;4.20;;;;;;5007655;28;20398;-75
2023/04/10 10:49:57;;;;;;;6.10;4.80;;;18.70;3.60;;;;;;5006264;28;20397;-74
2023/04/10 10:52:46;;;;;;;6.47;5.10;;;18.80;4.40;;;;;;5004981;28;20422;-74
2023/04/10 10:55:21;;;;;;;5.72;5.00;;;18.90;3.80;;;;;;5001978;28;20496;-75
2023/04/10 10:57:54;;;;;;;6.63;5.47;;;19.10;3.40;;;;;;5002597;28;20399;-74
2023/04/10 11:00:21;;;;;;;9.07;5.40;;;19.30;3.20;;;;;;5000644;28;20383;-75
2023/04/10 11:03:05;;;;;;;7.18;4.78;;;19.40;3.70;;;;;;5010692;28;20479;-75
2023/04/10 11:05:57;;;;;;;5.20;4.15;;;19.30;3.20;;;;;;5016547;28;20849;-73
2023/04/10 11:08:32;;;;;;;6.60;4.53;;;19.50;2.80;;;;;;5017235;28;20375;-74
2023/04/10 11:11:08;;;;;;;6.53;4.70;;;19.50;2.70;;;;;;5017297;28;20390;-75
2023/04/10 11:13:36;;;;;;;5.28;4.65;;;19.60;2.20;;;;;;5015511;28;20451;-75
2023/04/10 11:16:03;;;;;;;6.32;5.00;;;19.50;2.20;;;;;;5012937;28;20410;-74
2023/04/10 11:18:46;;;;;;;5.68;4.43;;;19.60;2.70;;;;;;5007377;28;20397;-74
2023/04/10 11:21:16;;;;;;;6.33;4.80;;;19.60;2.90;;;;;;5006221;28;20397;-75
2023/04/10 11:23:54;;;;;;;5.47;4.65;;;19.70;2.50;;;;;;4997953;28;20390;-75
2023/04/10 11:26:40;;;;;;;5.97;4.20;;;19.90;2.20;;;;;;4997999;28;20391;-75
2023/04/10 11:29:14;;;;;;;6.00;4.57;;;19.80;2.00;;;;;;5000754;28;20888;-75
2023/04/10 11:31:42;;;;;;;6.10;4.60;;;19.80;2.50;;;;;;5007557;28;20375;-74
2023/04/10 11:34:09;;;;;;;5.20;4.40;;;19.90;2.40;;;;;;5004928;28;20465;-75
2023/04/10 11:36:39;;;;;;;5.30;3.97;;;20.00;2.10;;;;;;5003931;28;20985;-74
2023/04/10 11:39:12;;;;;;;6.30;4.53;;;20.10;2.70;;;;;;5002018;28;20470;-74
2023/04/10 11:41:42;;;;;;;6.47;4.70;;;20.00;1.90;;;;;;5001006;28;20406;-74
2023/04/10 11:44:09;;;;;;;6.00;4.30;;;19.90;2.00;;;;;;5010964;28;20397;-75
2023/04/10 11:46:36;;;;;;;5.17;4.67;;;20.00;1.60;;;;;;5008117;28;20391;-75
2023/04/10 11:49:03;;;;;;;5.40;4.67;;;19.90;2.30;;;;;;4993072;28;20390;-74
2023/04/10 11:51:30;;;;;;;4.50;4.10;;;19.90;2.60;;;;;;4992289;28;20431;-74
2023/04/10 11:54:09;;;;;;;5.38;4.70;;;19.80;2.20;;;;;;4991727;28;20489;-74
2023/04/10 11:56:37;;;;;;;5.38;4.32;;;19.80;2.50;;;;;;4993372;28;20410;-74
2023/04/10 11:59:08;;;;;;;5.25;4.75;;;19.90;2.20;;;;;;4994431;28;20756;-74
2023/04/10 12:01:34;;;;;;;5.27;4.77;;;19.90;2.50;;;;;;4992547;28;20390;-74
2023/04/10 12:04:00;;;;;;;6.47;4.78;;;19.80;2.70;;;;;;4993395;28;20390;-75
2023/04/10 12:06:26;;;;;;;4.90;4.38;;;19.70;2.40;;;;;;4992067;28;20444;-75
2023/04/10 12:08:53;;;;;;;4.57;4.15;;;19.70;2.70;;;;;;4995740;28;20423;-76
2023/04/10 12:11:21;;;;;;;5.70;4.50;;;19.80;2.60;;;;;;4993613;28;20394;-75
2023/04/10 12:13:47;;;;;;;7.05;5.40;;;19.80;2.40;;;;;;4992191;28;20409;-74
2023/04/10 12:16:13;;;;;;;5.95;4.45;;;19.70;2.30;;;;;;4992992;28;20875;-76
2023/04/10 12:18:39;;;;;;;6.38;4.72;;;19.70;2.90;;;;;;4991905;28;20866;-76
2023/04/10 12:21:05;;;;;;;6.25;4.15;;;19.80;3.00;;;;;;4991844;28;20386;-75
2023/04/10 12:23:31;;;;;;;5.70;4.50;;;19.80;2.70;;;;;;4990887;28;20395;-76
2023/04/10 12:26:10;;;;;;;5.90;4.50;;;19.90;2.30;;;;;;4992821;28;20417;-76
2023/04/10 12:28:37;;;;;;;7.00;4.37;;;20.00;2.40;;;;;;4992337;28;20568;-75
2023/04/10 12:31:03;;;;;;;5.03;4.35;;;20.00;2.00;;;;;;4991508;28;20401;-75
2023/04/10 12:33:28;;;;;;;8.13;5.00;;;19.90;2.10;;;;;;4991911;28;20402;-75
2023/04/10 12:35:54;;;;;;;5.20;4.55;;;19.80;2.40;;;;;;4995369;28;20413;-75
2023/04/10 12:38:40;;;;;;;4.85;4.35;;;19.80;2.60;;;;;;4995628;28;20386;-75
2023/04/10 12:41:08;;;;;;;7.68;4.82;;;19.90;2.40;;;;;;4995670;28;20394;-75
2023/04/10 12:43:41;;;;;;;4.85;4.30;;;19.90;2.50;;;;;;4995658;28;20770;-74
2023/04/10 12:46:20;;;;;;;5.53;4.45;;;20.30;1.90;;;;;;4995315;28;20480;-74
2023/04/10 12:48:46;;;;;;;4.57;4.13;;;20.60;2.10;;;;;;4995429;28;20485;-75